Time;durP1;ratioP1;P1;durP2;ratioP2;P2;SDS_P1;SDS_P2;PMS_P1;PMS_P2;Temp;Humidity;BMP_temperature;BMP_pressure;BME280_temperature;BME280_humidity;BME280_pressure;Samples;Min_cycle;Max_cycle;Signal;HPM_P1;HPM_P2
2022/01/17 00:00:14;;;;;;;17.93;16.93;;;7.60;83.20;;;;;;4977806;28;20019;-82
2022/01/17 00:02:40;;;;;;;17.13;16.33;;;7.60;83.20;;;;;;4992728;28;20046;-82
2022/01/17 00:05:07;;;;;;;18.73;17.63;;;7.60;83.20;;;;;;4991538;28;20030;-82
2022/01/17 00:07:33;;;;;;;17.33;16.43;;;7.60;83.10;;;;;;4982701;28;20042;-82
2022/01/17 00:09:59;;;;;;;18.03;17.00;;;7.70;83.20;;;;;;4987306;28;20368;-82
2022/01/17 00:12:26;;;;;;;18.30;16.97;;;7.70;83.20;;;;;;4989555;28;20498;-82
2022/01/17 00:14:54;;;;;;;17.87;16.43;;;7.70;83.30;;;;;;4993506;28;20026;-82
2022/01/17 00:19:52;;;;;;;19.60;18.40;;;7.70;83.30;;;;;;4994347;28;20026;-82
2022/01/17 00:22:20;;;;;;;17.80;16.90;;;7.70;83.30;;;;;;4990171;28;20395;-82
2022/01/17 00:24:46;;;;;;;17.80;16.73;;;7.70;83.30;;;;;;4987059;28;20120;-82
2022/01/17 00:27:13;;;;;;;17.90;16.93;;;7.70;83.30;;;;;;4978874;28;20483;-82
2022/01/17 00:29:39;;;;;;;18.00;17.00;;;7.70;83.30;;;;;;4993924;28;20030;-82
2022/01/17 00:32:06;;;;;;;18.38;17.38;;;7.70;83.20;;;;;;4990813;28;20467;-82
2022/01/17 00:34:32;;;;;;;18.80;17.70;;;7.70;83.20;;;;;;4988786;28;20061;-82
2022/01/17 00:36:58;;;;;;;19.20;17.87;;;7.80;83.30;;;;;;4986605;28;20049;-82
2022/01/17 00:39:25;;;;;;;20.38;18.35;;;7.80;83.30;;;;;;4980173;28;20061;-82
2022/01/17 00:41:51;;;;;;;19.48;18.38;;;7.80;83.30;;;;;;4977917;28;20042;-82
2022/01/17 00:44:21;;;;;;;19.00;17.70;;;7.80;83.30;;;;;;4989972;28;20042;-82
2022/01/17 00:46:49;;;;;;;18.50;17.45;;;7.80;83.30;;;;;;4986902;28;20391;-82
2022/01/17 00:49:15;;;;;;;17.57;16.73;;;7.80;83.30;;;;;;4987065;28;20033;-82
2022/01/17 00:51:41;;;;;;;17.70;16.80;;;7.80;83.30;;;;;;4989619;28;20037;-82
2022/01/17 00:54:07;;;;;;;17.13;16.33;;;7.80;83.30;;;;;;4993528;28;20390;-82
2022/01/17 00:56:33;;;;;;;18.37;17.27;;;7.80;83.30;;;;;;4977983;28;20038;-82
2022/01/17 00:58:59;;;;;;;20.30;18.83;;;7.80;83.30;;;;;;4990260;28;20034;-82
2022/01/17 01:01:25;;;;;;;18.17;17.17;;;7.80;83.30;;;;;;4988780;28;20050;-82
2022/01/17 01:03:52;;;;;;;19.10;17.83;;;7.90;83.40;;;;;;4986742;28;20039;-82
2022/01/17 01:06:18;;;;;;;18.37;17.47;;;7.80;83.30;;;;;;4982068;28;20098;-82
2022/01/17 01:08:44;;;;;;;18.23;17.33;;;7.90;83.40;;;;;;4977711;28;20034;-82
2022/01/17 01:11:10;;;;;;;17.87;16.97;;;7.90;83.40;;;;;;4989155;28;20402;-82
2022/01/17 01:13:36;;;;;;;17.83;16.70;;;7.90;83.40;;;;;;4982411;28;20030;-82
2022/01/17 01:19:05;;;;;;;19.80;18.45;;;7.90;83.40;;;;;;4988897;28;20034;-82
2022/01/17 01:29:17;;;;;;;18.40;17.43;;;7.90;83.40;;;;;;4996812;28;20038;-82
2022/01/17 01:34:10;;;;;;;18.70;17.47;;;7.90;83.40;;;;;;4988089;28;20030;-82
2022/01/17 01:36:37;;;;;;;17.20;16.40;;;8.00;83.50;;;;;;4986616;28;20411;-82
2022/01/17 01:39:04;;;;;;;20.30;18.90;;;7.90;83.40;;;;;;4978000;28;20039;-82
2022/01/17 01:41:33;;;;;;;18.93;17.77;;;7.90;83.40;;;;;;4973364;28;20042;-82
2022/01/17 01:44:00;;;;;;;17.83;16.88;;;7.90;83.40;;;;;;4991833;28;20038;-82
2022/01/17 01:46:26;;;;;;;18.08;17.15;;;7.90;83.50;;;;;;4987035;28;20498;-82
2022/01/17 01:48:53;;;;;;;18.70;17.60;;;8.00;83.50;;;;;;4986835;28;20514;-82
2022/01/17 01:51:20;;;;;;;18.63;17.67;;;8.00;83.50;;;;;;4988508;28;20042;-82
2022/01/17 01:53:46;;;;;;;18.23;17.23;;;8.00;83.50;;;;;;4991172;28;20038;-82
2022/01/17 01:56:12;;;;;;;18.13;17.05;;;8.00;83.60;;;;;;4976027;28;20042;-82
2022/01/17 01:58:39;;;;;;;18.92;17.40;;;8.00;83.60;;;;;;4987637;28;20026;-82
2022/01/17 02:01:05;;;;;;;18.83;17.40;;;8.00;83.60;;;;;;4988133;28;20407;-82
2022/01/17 02:03:31;;;;;;;20.02;18.45;;;7.90;83.60;;;;;;4986946;28;20050;-82
2022/01/17 02:05:57;;;;;;;18.45;17.02;;;7.90;83.60;;;;;;4990251;28;20505;-82
2022/01/17 02:08:23;;;;;;;19.03;17.63;;;7.90;83.60;;;;;;4975625;28;20043;-82
2022/01/17 02:10:49;;;;;;;18.73;17.75;;;7.90;83.60;;;;;;4987681;28;20042;-82
2022/01/17 02:13:15;;;;;;;18.37;17.40;;;7.90;83.60;;;;;;4985147;28;20042;-82
2022/01/17 02:15:43;;;;;;;18.58;17.58;;;7.90;83.60;;;;;;5007253;28;20483;-82
2022/01/17 02:18:12;;;;;;;18.20;17.10;;;7.90;83.60;;;;;;4988547;28;20026;-82
2022/01/17 02:20:58;;;;;;;18.02;17.00;;;8.00;83.80;;;;;;4976232;28;20487;-82
2022/01/17 02:23:24;;;;;;;18.17;17.15;;;8.00;83.70;;;;;;4989754;28;20498;-82
2022/01/17 02:25:50;;;;;;;18.00;17.10;;;8.00;83.70;;;;;;4971218;28;20037;-82
2022/01/17 02:28:16;;;;;;;21.45;18.83;;;8.00;83.70;;;;;;4987648;28;20037;-82
2022/01/17 02:30:42;;;;;;;19.00;17.55;;;8.00;83.80;;;;;;4986075;28;20026;-82
2022/01/17 02:33:08;;;;;;;18.75;17.60;;;8.00;83.70;;;;;;4987545;28;20046;-82
2022/01/17 02:35:34;;;;;;;18.17;17.17;;;8.00;83.80;;;;;;4991816;28;20023;-82
2022/01/17 02:38:00;;;;;;;17.35;16.38;;;8.00;83.80;;;;;;4986418;28;20030;-82
2022/01/17 02:40:27;;;;;;;18.23;16.73;;;8.00;83.80;;;;;;5007414;28;20459;-82
2022/01/17 02:43:02;;;;;;;19.35;18.17;;;8.00;83.80;;;;;;4987768;28;20046;-82
2022/01/17 02:45:38;;;;;;;18.03;17.03;;;8.00;83.80;;;;;;4987593;28;20049;-82
2022/01/17 02:48:08;;;;;;;18.20;17.25;;;8.00;83.70;;;;;;4975775;28;20031;-82
2022/01/17 02:50:35;;;;;;;21.10;19.70;;;8.00;83.70;;;;;;4991681;28;20053;-82
2022/01/17 02:53:03;;;;;;;17.43;16.53;;;8.00;83.80;;;;;;4980329;28;20035;-82
2022/01/17 02:55:29;;;;;;;17.93;16.97;;;8.00;83.70;;;;;;4981211;28;20034;-82
2022/01/17 02:57:56;;;;;;;17.33;16.47;;;8.10;83.80;;;;;;4985488;28;20022;-82
2022/01/17 03:00:22;;;;;;;17.77;16.77;;;8.10;83.80;;;;;;4993015;28;20426;-82
2022/01/17 03:02:49;;;;;;;17.53;16.63;;;8.00;83.70;;;;;;4976630;28;20054;-82
2022/01/17 03:05:16;;;;;;;17.03;16.23;;;8.00;83.70;;;;;;4985048;28;20022;-82
2022/01/17 03:07:43;;;;;;;18.00;16.87;;;8.10;83.80;;;;;;4982649;28;20026;-82
2022/01/17 03:10:18;;;;;;;18.85;17.05;;;8.00;83.80;;;;;;4992511;28;20038;-82
2022/01/17 03:12:44;;;;;;;18.67;17.67;;;8.00;83.80;;;;;;4986046;28;20391;-82
2022/01/17 03:15:12;;;;;;;17.30;16.30;;;8.00;83.80;;;;;;4990542;28;20031;-82
2022/01/17 03:17:38;;;;;;;19.00;17.60;;;8.10;83.90;;;;;;4974569;28;20042;-82
2022/01/17 03:20:05;;;;;;;17.80;16.70;;;8.10;83.90;;;;;;4994009;28;20497;-82
2022/01/17 03:22:32;;;;;;;19.60;18.50;;;8.10;83.90;;;;;;4990614;28;20058;-82
2022/01/17 03:24:59;;;;;;;16.93;16.13;;;8.00;83.80;;;;;;4992487;28;20055;-82
2022/01/17 03:27:25;;;;;;;17.38;16.55;;;8.10;83.90;;;;;;4990701;28;20033;-82
2022/01/17 03:29:51;;;;;;;18.73;17.75;;;8.00;83.90;;;;;;4990792;28;20035;-82
2022/01/17 03:32:17;;;;;;;18.02;17.02;;;8.00;83.90;;;;;;4992604;28;20050;-82
2022/01/17 03:34:43;;;;;;;17.35;16.50;;;8.10;84.00;;;;;;4991449;28;20030;-82
2022/01/17 03:37:09;;;;;;;17.80;16.75;;;8.10;84.00;;;;;;4989559;28;20387;-82
2022/01/17 03:39:35;;;;;;;16.95;16.15;;;8.10;84.00;;;;;;4986678;28;20026;-81
2022/01/17 03:42:02;;;;;;;17.73;16.83;;;8.10;84.00;;;;;;4992305;28;20019;-82
2022/01/17 03:44:28;;;;;;;17.40;16.55;;;8.10;84.00;;;;;;4994196;28;20034;-82
2022/01/17 03:46:54;;;;;;;17.90;16.90;;;8.10;84.00;;;;;;4991043;28;20023;-82
2022/01/17 03:49:20;;;;;;;16.67;15.88;;;8.10;84.00;;;;;;4990485;28;20038;-82
2022/01/17 03:51:46;;;;;;;17.65;16.83;;;8.10;84.80;;;;;;4990791;28;20041;-82
2022/01/17 03:54:12;;;;;;;17.63;16.73;;;8.10;84.00;;;;;;4986298;28;20026;-82
2022/01/17 03:56:38;;;;;;;17.30;16.50;;;8.10;84.00;;;;;;4979407;28;20490;-82
2022/01/17 03:59:04;;;;;;;17.83;17.02;;;8.10;83.90;;;;;;4989845;28;20033;-82
2022/01/17 04:01:30;;;;;;;18.48;17.58;;;8.10;84.00;;;;;;4988833;28;20482;-82
2022/01/17 04:03:56;;;;;;;17.48;16.67;;;8.10;83.90;;;;;;4987892;28;20057;-82
2022/01/17 04:06:24;;;;;;;18.65;17.33;;;8.20;84.00;;;;;;4989150;28;20387;-82
2022/01/17 04:08:50;;;;;;;18.27;17.38;;;8.20;84.00;;;;;;4981145;28;20046;-82
2022/01/17 04:11:16;;;;;;;17.98;17.08;;;8.10;83.90;;;;;;4978987;28;20468;-82
2022/01/17 04:13:42;;;;;;;17.75;16.75;;;8.10;83.90;;;;;;4990849;28;20041;-82
2022/01/17 04:16:11;;;;;;;17.23;16.42;;;8.10;84.10;;;;;;4985721;28;20038;-82
2022/01/17 04:18:37;;;;;;;17.63;16.63;;;8.10;84.10;;;;;;4988490;28;20459;-82
2022/01/17 04:21:04;;;;;;;17.05;16.15;;;8.10;84.00;;;;;;4990894;28;20027;-83
2022/01/17 04:23:30;;;;;;;17.30;16.45;;;8.20;84.10;;;;;;4984642;28;20054;-82
2022/01/17 04:25:56;;;;;;;17.30;16.40;;;8.10;84.00;;;;;;4983227;28;20045;-82
2022/01/17 04:28:22;;;;;;;16.40;15.55;;;8.20;84.10;;;;;;4987197;28;20046;-82
2022/01/17 04:30:48;;;;;;;16.60;15.80;;;8.20;84.10;;;;;;4989157;28;20031;-85
2022/01/17 04:33:14;;;;;;;17.60;16.70;;;8.10;84.10;;;;;;4977733;28;20037;-81
2022/01/17 04:35:41;;;;;;;16.98;16.17;;;8.10;84.10;;;;;;4990966;28;20042;-81
2022/01/17 04:38:08;;;;;;;16.63;15.82;;;8.10;84.10;;;;;;4987016;28;20030;-80
2022/01/17 04:40:36;;;;;;;17.45;16.35;;;8.10;84.10;;;;;;4989955;28;20030;-81
2022/01/17 04:43:05;;;;;;;18.38;16.83;;;8.10;84.10;;;;;;4989773;28;20054;-82
2022/01/17 04:45:32;;;;;;;16.60;15.60;;;8.10;84.10;;;;;;4987610;28;20041;-82
2022/01/17 04:47:58;;;;;;;17.13;16.33;;;8.10;84.10;;;;;;4978284;28;20030;-83
2022/01/17 04:50:26;;;;;;;16.65;15.70;;;8.20;84.20;;;;;;4991097;28;20388;-81
2022/01/17 04:52:55;;;;;;;16.60;15.80;;;8.20;84.20;;;;;;4990380;28;20054;-81
2022/01/17 04:55:21;;;;;;;18.17;16.92;;;8.20;84.20;;;;;;4986692;28;20018;-82
2022/01/17 04:57:47;;;;;;;16.90;16.10;;;8.20;84.10;;;;;;4988099;28;20038;-82
2022/01/17 05:00:15;;;;;;;17.90;17.08;;;8.10;84.10;;;;;;4991880;28;20030;-82
2022/01/17 05:02:42;;;;;;;16.50;15.70;;;8.10;84.20;;;;;;4976808;28;20057;-81
2022/01/17 05:05:09;;;;;;;17.60;16.70;;;8.10;84.20;;;;;;4982257;28;20423;-81
2022/01/17 05:07:35;;;;;;;18.02;16.92;;;8.10;84.30;;;;;;4984721;28;20047;-82
2022/01/17 05:10:03;;;;;;;18.02;17.02;;;8.10;84.30;;;;;;4984917;28;20043;-80
2022/01/17 05:12:30;;;;;;;16.57;15.77;;;8.10;84.30;;;;;;4979208;28;20039;-81
2022/01/17 05:14:57;;;;;;;16.27;15.48;;;8.10;84.30;;;;;;4986194;28;20038;-81
2022/01/17 05:19:57;;;;;;;16.67;15.85;;;8.10;84.30;;;;;;4984784;28;20026;-82
2022/01/17 05:22:26;;;;;;;16.92;16.05;;;8.10;84.30;;;;;;4987716;28;20046;-82
2022/01/17 05:24:52;;;;;;;16.67;15.88;;;8.10;84.30;;;;;;4987225;28;20034;-83
2022/01/17 05:27:18;;;;;;;16.77;15.98;;;8.10;84.30;;;;;;4992423;28;20475;-81
2022/01/17 05:29:46;;;;;;;17.23;16.40;;;8.10;84.30;;;;;;4983957;28;20045;-81
2022/01/17 05:32:12;;;;;;;18.10;17.15;;;8.10;84.30;;;;;;4987382;28;20034;-82
2022/01/17 05:34:40;;;;;;;16.70;15.90;;;8.10;84.30;;;;;;4987073;28;20030;-82
2022/01/17 05:37:07;;;;;;;18.02;17.13;;;8.10;84.30;;;;;;4988294;28;20030;-82
2022/01/17 05:39:34;;;;;;;18.08;17.17;;;8.10;84.30;;;;;;5002438;28;20027;-81
2022/01/17 05:42:00;;;;;;;18.00;17.10;;;8.00;84.30;;;;;;4976769;28;20034;-81
2022/01/17 05:44:26;;;;;;;17.45;16.65;;;8.00;84.30;;;;;;4991109;28;20034;-82
2022/01/17 05:46:52;;;;;;;18.25;17.35;;;7.90;84.30;;;;;;4990067;28;20033;-82
2022/01/17 05:49:18;;;;;;;17.17;16.38;;;7.90;84.30;;;;;;4988835;28;20034;-82
2022/01/17 05:51:44;;;;;;;17.87;16.87;;;7.90;84.40;;;;;;4985386;28;20032;-82
2022/01/17 05:54:10;;;;;;;16.27;15.55;;;7.90;84.50;;;;;;4988730;28;20046;-81
2022/01/17 05:56:36;;;;;;;15.52;14.82;;;7.90;84.50;;;;;;4981160;28;20533;-81
2022/01/17 05:59:03;;;;;;;16.50;15.70;;;7.90;84.60;;;;;;4989911;28;20379;-82
2022/01/17 06:01:29;;;;;;;16.42;15.65;;;7.90;84.60;;;;;;4987530;28;20514;-83
2022/01/17 06:03:55;;;;;;;17.15;16.35;;;7.90;84.50;;;;;;4988044;28;20050;-82
2022/01/17 06:06:21;;;;;;;17.00;16.17;;;7.90;84.50;;;;;;4981048;28;20035;-81
2022/01/17 06:08:47;;;;;;;17.08;16.17;;;7.90;84.40;;;;;;4977507;28;20038;-81
2022/01/17 06:11:13;;;;;;;17.65;16.65;;;7.90;84.50;;;;;;4974756;28;20491;-81
2022/01/17 06:13:39;;;;;;;17.10;16.30;;;7.90;84.50;;;;;;4980671;28;20042;-81
2022/01/17 06:16:05;;;;;;;16.77;15.98;;;7.90;84.50;;;;;;4979054;28;20400;-81
2022/01/17 06:18:31;;;;;;;17.83;16.90;;;7.90;84.50;;;;;;4986807;28;20046;-81
2022/01/17 06:20:57;;;;;;;17.13;16.33;;;7.90;84.50;;;;;;4990127;28;20394;-82
2022/01/17 06:23:25;;;;;;;18.00;17.10;;;7.90;84.50;;;;;;4975320;28;20050;-82
2022/01/17 06:25:51;;;;;;;18.30;17.30;;;7.80;84.40;;;;;;4977698;28;20038;-83
2022/01/17 06:28:17;;;;;;;16.55;15.77;;;7.80;84.40;;;;;;4975217;28;20039;-81
2022/01/17 06:30:43;;;;;;;16.88;16.08;;;7.80;84.50;;;;;;4981664;28;20034;-82
2022/01/17 06:33:09;;;;;;;17.58;16.75;;;7.80;84.60;;;;;;4982698;28;20026;-82
2022/01/17 06:35:35;;;;;;;16.10;15.40;;;7.70;84.70;;;;;;4978785;28;20053;-82
2022/01/17 06:38:02;;;;;;;17.70;16.80;;;7.70;84.70;;;;;;4985788;28;20472;-82
2022/01/17 06:40:29;;;;;;;17.23;16.13;;;7.70;84.80;;;;;;4985856;28;20459;-81
2022/01/17 06:42:55;;;;;;;17.10;16.30;;;7.70;84.70;;;;;;4986259;28;20045;-81
2022/01/17 06:45:21;;;;;;;16.83;16.02;;;7.70;84.60;;;;;;4990494;28;20038;-82
2022/01/17 06:47:47;;;;;;;18.30;17.33;;;7.60;84.60;;;;;;4981522;28;20037;-81
2022/01/17 06:50:14;;;;;;;17.33;16.52;;;7.60;84.70;;;;;;4988608;28;20387;-82
2022/01/17 06:52:40;;;;;;;16.88;16.08;;;7.50;84.70;;;;;;4980553;28;20023;-81
2022/01/17 06:55:06;;;;;;;16.77;15.97;;;7.50;84.60;;;;;;4983918;28;20039;-82
2022/01/17 06:57:33;;;;;;;18.17;17.37;;;7.40;84.60;;;;;;4987617;28;20041;-81
2022/01/17 06:59:59;;;;;;;17.23;16.33;;;7.40;84.80;;;;;;4977296;28;20042;-81
2022/01/17 07:02:25;;;;;;;16.83;15.97;;;7.40;85.00;;;;;;4974694;28;20035;-81
2022/01/17 07:04:51;;;;;;;16.50;15.70;;;7.40;85.10;;;;;;4976952;28;20049;-81
2022/01/17 07:07:19;;;;;;;16.37;15.57;;;7.40;85.00;;;;;;4985471;28;20035;-82
2022/01/17 07:09:45;;;;;;;16.30;15.57;;;7.40;84.90;;;;;;4984559;28;20042;-82
2022/01/17 07:12:11;;;;;;;17.77;16.88;;;7.50;84.90;;;;;;4979336;28;20042;-81
2022/01/17 07:14:41;;;;;;;17.87;16.90;;;7.50;84.80;;;;;;4990352;28;20038;-81
2022/01/17 07:17:11;;;;;;;16.60;15.80;;;7.50;84.80;;;;;;4978125;28;20099;-81
2022/01/17 07:19:37;;;;;;;17.73;16.77;;;7.50;84.80;;;;;;4992182;28;20038;-82
2022/01/17 07:22:07;;;;;;;17.30;16.50;;;7.50;84.80;;;;;;4990434;28;20034;-81
2022/01/17 07:24:33;;;;;;;16.47;15.67;;;7.50;84.80;;;;;;4985606;28;20046;-81
2022/01/17 07:26:59;;;;;;;16.80;16.00;;;7.50;84.70;;;;;;4991479;28;20038;-81
2022/01/17 07:29:26;;;;;;;16.47;15.67;;;7.50;85.00;;;;;;4976113;28;20055;-81
2022/01/17 07:31:53;;;;;;;17.17;16.10;;;7.50;85.60;;;;;;4990425;28;20038;-82
2022/01/17 07:34:19;;;;;;;16.50;15.70;;;7.50;84.80;;;;;;4985910;28;20046;-82
2022/01/17 07:36:45;;;;;;;17.10;16.30;;;7.50;84.80;;;;;;4974376;28;20075;-82
2022/01/17 07:39:11;;;;;;;16.50;15.73;;;7.50;84.70;;;;;;4982829;28;20042;-81
2022/01/17 07:41:37;;;;;;;16.97;16.17;;;7.50;84.80;;;;;;4990550;28;20045;-81
2022/01/17 07:44:05;;;;;;;16.60;15.83;;;7.50;84.80;;;;;;4977732;28;20053;-82
2022/01/17 07:46:47;;;;;;;16.73;15.93;;;7.50;84.80;;;;;;4994663;28;20054;-81
2022/01/17 07:49:19;;;;;;;16.70;15.90;;;7.50;84.70;;;;;;4985921;28;20491;-81
2022/01/17 07:51:47;;;;;;;16.53;15.73;;;7.50;84.70;;;;;;4993338;28;20043;-82
2022/01/17 07:54:15;;;;;;;16.67;15.87;;;7.50;84.60;;;;;;4992116;28;20043;-82
2022/01/17 07:56:42;;;;;;;17.03;16.10;;;7.40;84.60;;;;;;4982960;28;20046;-82
2022/01/17 07:59:09;;;;;;;17.13;16.33;;;7.40;84.80;;;;;;4989051;28;20038;-82
2022/01/17 08:01:36;;;;;;;17.17;16.37;;;7.40;84.70;;;;;;4993133;28;20046;-82
2022/01/17 08:04:03;;;;;;;17.20;16.40;;;7.30;84.70;;;;;;5009519;28;20042;-82
2022/01/17 08:06:29;;;;;;;16.83;16.03;;;7.30;84.80;;;;;;5001940;28;20038;-81
2022/01/17 08:08:57;;;;;;;16.70;15.90;;;7.30;84.80;;;;;;4992902;28;20046;-82
2022/01/17 08:11:23;;;;;;;16.67;15.87;;;7.30;84.80;;;;;;4994691;28;20033;-82
2022/01/17 08:13:49;;;;;;;17.10;16.30;;;7.20;84.70;;;;;;4995022;28;20046;-84
2022/01/17 08:16:15;;;;;;;16.13;15.43;;;7.20;84.80;;;;;;4994117;28;20403;-84
2022/01/17 08:18:42;;;;;;;15.97;15.27;;;7.20;84.80;;;;;;4992038;28;20050;-82
2022/01/17 08:21:08;;;;;;;16.77;15.97;;;7.10;84.70;;;;;;4983036;28;20471;-83
2022/01/17 08:23:36;;;;;;;17.23;16.43;;;7.10;84.80;;;;;;4991702;28;20058;-84
2022/01/17 08:26:03;;;;;;;16.90;16.10;;;7.10;84.90;;;;;;4994615;28;20029;-84
2022/01/17 08:28:29;;;;;;;16.77;15.80;;;7.10;85.00;;;;;;4992881;28;20030;-88
2022/01/17 08:30:55;;;;;;;16.83;15.97;;;7.10;84.90;;;;;;4987491;28;20408;-86
2022/01/17 08:33:22;;;;;;;16.97;16.17;;;7.10;84.90;;;;;;4983538;28;20022;-83
2022/01/17 08:35:49;;;;;;;17.00;16.20;;;7.10;84.90;;;;;;4988339;28;20046;-85
2022/01/17 08:38:15;;;;;;;18.00;17.00;;;7.10;85.10;;;;;;4993477;28;20033;-86
2022/01/17 08:40:41;;;;;;;18.13;17.23;;;7.10;85.00;;;;;;4983950;28;20387;-87
2022/01/17 08:43:07;;;;;;;17.70;16.80;;;7.10;84.90;;;;;;4990857;28;20039;-85
2022/01/17 08:45:33;;;;;;;16.53;15.73;;;7.10;84.90;;;;;;4981651;28;20057;-85
2022/01/17 08:48:00;;;;;;;16.90;16.10;;;7.10;84.90;;;;;;4980850;28;20038;-83
2022/01/17 08:50:27;;;;;;;16.20;15.50;;;7.10;84.80;;;;;;4990505;28;20034;-87
2022/01/17 08:52:53;;;;;;;16.30;15.60;;;7.10;84.80;;;;;;4988076;28;20053;-85
2022/01/17 08:55:21;;;;;;;16.57;15.77;;;7.10;84.80;;;;;;4982644;28;20369;-85
2022/01/17 08:57:47;;;;;;;17.00;16.20;;;7.20;84.90;;;;;;4974161;28;20026;-83
2022/01/17 09:00:15;;;;;;;17.70;16.70;;;7.10;84.70;;;;;;4988862;28;20026;-84
2022/01/17 09:02:41;;;;;;;16.93;16.13;;;7.10;84.70;;;;;;4949691;28;20483;-82
2022/01/17 09:05:07;;;;;;;16.70;15.90;;;7.10;84.70;;;;;;4972106;28;20042;-82
2022/01/17 09:07:33;;;;;;;16.80;16.00;;;7.10;84.90;;;;;;4972208;28;20403;-82
2022/01/17 09:10:00;;;;;;;16.57;15.77;;;7.10;84.90;;;;;;4972692;28;20518;-83
2022/01/17 09:12:26;;;;;;;16.60;15.80;;;7.10;84.90;;;;;;4972075;28;20019;-82
2022/01/17 09:14:52;;;;;;;15.60;14.90;;;7.10;85.80;;;;;;4969251;28;20043;-82
2022/01/17 09:17:18;;;;;;;17.23;16.43;;;7.10;84.90;;;;;;4981618;28;20034;-82
2022/01/17 09:19:46;;;;;;;16.60;15.80;;;7.10;84.90;;;;;;4979435;28;20468;-82
2022/01/17 09:22:12;;;;;;;15.87;15.17;;;7.10;84.90;;;;;;4987752;28;20034;-82
2022/01/17 09:24:38;;;;;;;16.93;16.13;;;7.10;84.80;;;;;;4989524;28;20045;-81
2022/01/17 09:27:05;;;;;;;16.97;16.17;;;7.20;84.80;;;;;;5004036;28;20035;-83
2022/01/17 09:29:32;;;;;;;17.90;17.00;;;7.20;84.80;;;;;;4993366;28;20034;-83
2022/01/17 09:31:58;;;;;;;16.47;15.70;;;7.20;84.90;;;;;;4992982;28;20030;-83
2022/01/17 09:34:24;;;;;;;16.90;16.10;;;7.20;84.80;;;;;;4992851;28;20053;-83
2022/01/17 09:36:52;;;;;;;16.90;16.10;;;7.20;84.80;;;;;;5007458;28;20045;-82
2022/01/17 09:39:18;;;;;;;17.23;16.40;;;7.30;84.90;;;;;;4984374;28;20065;-82
2022/01/17 09:41:45;;;;;;;17.40;16.60;;;7.30;84.70;;;;;;4989512;28;20407;-85
2022/01/17 09:44:11;;;;;;;17.38;16.48;;;7.20;84.70;;;;;;4988714;28;20057;-82
2022/01/17 09:46:44;;;;;;;17.10;16.30;;;7.30;84.80;;;;;;4992412;28;20038;-82
2022/01/17 09:49:35;;;;;;;16.83;16.02;;;7.30;84.90;;;;;;4980268;28;20034;-83
2022/01/17 09:52:14;;;;;;;16.25;15.52;;;7.30;84.90;;;;;;4973407;28;20042;-82
2022/01/17 09:54:42;;;;;;;17.90;16.67;;;7.40;84.90;;;;;;4989779;28;20092;-84
2022/01/17 09:57:08;;;;;;;17.23;16.42;;;7.40;84.70;;;;;;4994520;28;20045;-82
2022/01/17 09:59:36;;;;;;;18.20;17.30;;;7.50;84.60;;;;;;4992528;28;20042;-82
2022/01/17 10:02:03;;;;;;;16.92;16.13;;;7.50;84.50;;;;;;4977108;28;20050;-83
2022/01/17 10:04:30;;;;;;;18.17;17.00;;;7.50;84.60;;;;;;4987740;28;20487;-83
2022/01/17 10:06:57;;;;;;;16.70;15.90;;;7.50;84.60;;;;;;5004325;28;20046;-83
2022/01/17 10:09:27;;;;;;;17.17;16.38;;;7.60;84.70;;;;;;4988504;28;20026;-82
2022/01/17 10:12:07;;;;;;;17.02;16.23;;;7.60;84.60;;;;;;4987422;28;20038;-81
2022/01/17 10:14:36;;;;;;;18.03;16.93;;;7.60;84.50;;;;;;4990106;28;20034;-82
2022/01/17 10:17:07;;;;;;;18.42;17.52;;;7.60;84.40;;;;;;4991222;28;20038;-81
2022/01/17 10:19:33;;;;;;;18.40;17.50;;;7.60;84.50;;;;;;5003552;28;20034;-80
2022/01/17 10:22:01;;;;;;;18.57;17.03;;;7.50;84.60;;;;;;4987123;28;20053;-81
2022/01/17 10:35:23;;;;;;;16.92;16.13;;;7.80;84.50;;;;;;4988241;28;20107;-83
2022/01/17 10:37:59;;;;;;;16.97;16.17;;;7.80;84.40;;;;;;4982430;28;20031;-84
2022/01/17 10:40:27;;;;;;;17.60;16.80;;;7.80;84.40;;;;;;4990292;28;20031;-86
2022/01/17 10:42:54;;;;;;;18.10;17.20;;;7.90;84.40;;;;;;4981900;28;20034;-83
2022/01/17 10:45:23;;;;;;;17.50;16.70;;;7.90;84.30;;;;;;4983668;28;20061;-83
2022/01/17 10:47:51;;;;;;;18.20;17.30;;;7.80;84.30;;;;;;4967822;28;20047;-86
2022/01/17 10:50:28;;;;;;;17.98;17.17;;;7.90;84.40;;;;;;4957884;28;20038;-80
2022/01/17 10:52:56;;;;;;;18.03;17.07;;;7.90;84.40;;;;;;4972959;28;20413;-85
2022/01/17 10:55:27;;;;;;;18.33;17.33;;;7.90;84.30;;;;;;4970174;28;20038;-81
2022/01/17 10:58:02;;;;;;;17.27;16.48;;;7.90;84.40;;;;;;4971233;28;20037;-80
2022/01/17 11:00:31;;;;;;;17.20;16.25;;;8.00;84.40;;;;;;4972064;28;20031;-83
2022/01/17 11:03:02;;;;;;;18.02;17.13;;;8.00;84.30;;;;;;4972057;28;20047;-82
2022/01/17 11:05:28;;;;;;;;;;;8.10;84.30;;;;;;4954880;28;20400;-83
2022/01/17 11:07:58;;;;;;;16.95;16.15;;;8.10;84.20;;;;;;4952577;28;19910;-83
2022/01/17 11:10:34;;;;;;;17.08;16.27;;;8.00;84.20;;;;;;4948563;28;20042;-82
2022/01/17 11:13:02;;;;;;;17.63;16.83;;;8.00;84.20;;;;;;4964365;28;20035;-81
2022/01/17 11:15:29;;;;;;;16.58;15.77;;;8.10;84.30;;;;;;4969336;28;20038;-81
2022/01/17 11:17:57;;;;;;;17.40;16.60;;;8.10;84.30;;;;;;4959587;28;20027;-83
2022/01/17 11:20:25;;;;;;;18.23;17.07;;;8.20;85.10;;;;;;4971140;28;20030;-84
2022/01/17 11:22:56;;;;;;;17.35;16.55;;;8.20;84.30;;;;;;4976510;28;20043;-83
2022/01/17 11:25:24;;;;;;;18.08;17.27;;;8.30;84.20;;;;;;4966294;28;20062;-82
2022/01/17 11:27:50;;;;;;;17.50;16.70;;;8.30;84.20;;;;;;4961251;28;20048;-81
2022/01/17 11:30:17;;;;;;;16.60;15.80;;;8.30;84.20;;;;;;4961733;28;20039;-80
2022/01/17 11:32:47;;;;;;;16.95;16.15;;;8.30;84.20;;;;;;4973316;28;20031;-80
2022/01/17 11:35:13;;;;;;;18.23;17.33;;;8.20;84.10;;;;;;4969401;28;20034;-80
2022/01/17 11:37:42;;;;;;;16.90;16.10;;;8.20;84.40;;;;;;4964574;28;20035;-81
2022/01/17 11:40:09;;;;;;;17.37;16.57;;;8.10;84.30;;;;;;4986956;28;20057;-83
2022/01/17 11:42:42;;;;;;;17.48;16.67;;;8.10;84.40;;;;;;4949031;28;20391;-81
2022/01/17 11:45:24;;;;;;;18.52;17.42;;;8.10;84.30;;;;;;4972684;28;20059;-82
2022/01/17 11:47:56;;;;;;;;;;;8.10;84.40;;;;;;4970712;28;20030;-80
2022/01/17 11:50:28;;;;;;;17.17;16.27;;;8.10;84.40;;;;;;4971406;28;19918;-80
2022/01/17 11:52:55;;;;;;;16.95;16.15;;;8.20;84.30;;;;;;4969357;28;20091;-80
2022/01/17 11:55:42;;;;;;;17.73;16.92;;;8.20;84.40;;;;;;4971803;28;20027;-79
2022/01/17 11:58:22;;;;;;;16.70;15.90;;;8.30;84.40;;;;;;4975159;28;20039;-79
2022/01/17 12:00:51;;;;;;;16.92;16.13;;;8.30;84.30;;;;;;4966509;28;20044;-81
2022/01/17 12:03:21;;;;;;;17.58;16.58;;;8.30;84.20;;;;;;4966548;28;20498;-82
2022/01/17 12:05:47;;;;;;;18.13;17.13;;;8.30;84.30;;;;;;4970969;28;20099;-80
2022/01/17 12:08:31;;;;;;;17.70;16.70;;;8.30;84.30;;;;;;4959805;28;20484;-81
2022/01/17 12:11:07;;;;;;;16.83;16.02;;;8.30;84.30;;;;;;4974764;28;20038;-80
2022/01/17 12:13:38;;;;;;;17.27;16.45;;;8.30;84.30;;;;;;4967862;28;20031;-80
2022/01/17 12:16:39;;;;;;;17.73;16.88;;;8.40;84.30;;;;;;4973464;28;20035;-80
2022/01/17 12:18:58;;;;;;;18.67;17.58;;;8.40;84.20;;;;;;4967750;28;20039;-80
2022/01/17 12:21:32;;;;;;;18.17;17.27;;;8.40;84.20;;;;;;4970767;28;20035;-80
2022/01/17 12:24:17;;;;;;;18.10;17.00;;;8.50;84.10;;;;;;4961925;28;20081;-81
2022/01/17 12:26:44;;;;;;;17.42;16.63;;;8.50;84.20;;;;;;4963980;28;20033;-80
2022/01/17 12:29:10;;;;;;;18.10;17.23;;;8.50;84.20;;;;;;4957205;28;20050;-80
2022/01/17 12:31:37;;;;;;;18.00;16.90;;;8.50;84.20;;;;;;4961509;28;20039;-80
2022/01/17 12:34:23;;;;;;;19.85;18.67;;;8.50;84.20;;;;;;4965075;28;20035;-80
2022/01/17 12:36:50;;;;;;;19.52;18.63;;;8.40;84.30;;;;;;4953464;28;20503;-81
2022/01/17 12:39:17;;;;;;;18.85;17.95;;;8.40;84.30;;;;;;4967862;28;20027;-80
2022/01/17 12:41:44;;;;;;;18.90;18.00;;;8.40;84.30;;;;;;4974150;28;20023;-79
2022/01/17 12:44:23;;;;;;;18.90;18.00;;;8.40;84.30;;;;;;4974172;28;20038;-81
2022/01/17 12:46:54;;;;;;;18.85;17.75;;;8.40;84.30;;;;;;4969733;28;20054;-81
2022/01/17 12:49:20;;;;;;;19.23;17.90;;;8.40;84.30;;;;;;4961697;28;20030;-82
2022/01/17 12:51:48;;;;;;;19.77;18.88;;;8.40;84.20;;;;;;4973048;28;20038;-81
2022/01/17 12:54:16;;;;;;;18.27;17.40;;;8.40;84.30;;;;;;4973374;28;20039;-81
2022/01/17 12:56:47;;;;;;;18.90;17.90;;;8.40;84.40;;;;;;4958407;28;20531;-82
2022/01/17 12:59:13;;;;;;;17.98;17.13;;;8.40;84.40;;;;;;4967803;28;20039;-81
2022/01/17 13:01:42;;;;;;;17.55;16.65;;;8.50;84.40;;;;;;4970863;28;20039;-81
2022/01/17 13:04:11;;;;;;;16.27;15.57;;;8.50;84.20;;;;;;4973652;28;20039;-81
2022/01/17 13:06:39;;;;;;;17.35;16.55;;;8.40;84.30;;;;;;4968053;28;20075;-80
2022/01/17 13:09:14;;;;;;;18.00;16.90;;;8.40;84.30;;;;;;4966515;28;20042;-80